sensor_id;sensor_type;location;lat;lon;timestamp;pressure;altitude;pressure_sealevel;temperature;humidity
56668;BME280;42542;48.360;10.958;2023-02-07T00:01:15;97920.53;;;-3.24;91.21
56668;BME280;42542;48.360;10.958;2023-02-07T00:04:17;97916.22;;;-3.25;91.14
56668;BME280;42542;48.360;10.958;2023-02-07T00:07:19;97915.38;;;-3.27;91.22
56668;BME280;42542;48.360;10.958;2023-02-07T00:10:20;97908.41;;;-3.26;91.59
56668;BME280;42542;48.360;10.958;2023-02-07T00:13:22;97908.41;;;-3.26;91.81
56668;BME280;42542;48.360;10.958;2023-02-07T00:16:24;97891.91;;;-3.30;91.24
56668;BME280;42542;48.360;10.958;2023-02-07T00:19:26;97898.03;;;-3.31;91.04
56668;BME280;42542;48.360;10.958;2023-02-07T00:22:28;97907.75;;;-3.36;90.96
56668;BME280;42542;48.360;10.958;2023-02-07T00:25:29;97901.69;;;-3.38;90.84
56668;BME280;42542;48.360;10.958;2023-02-07T00:28:31;97894.81;;;-3.42;90.99
56668;BME280;42542;48.360;10.958;2023-02-07T00:31:34;97900.06;;;-3.42;91.11
56668;BME280;42542;48.360;10.958;2023-02-07T00:34:36;97891.38;;;-3.44;91.02
56668;BME280;42542;48.360;10.958;2023-02-07T00:37:38;97888.72;;;-3.42;91.05
56668;BME280;42542;48.360;10.958;2023-02-07T00:40:40;97876.66;;;-3.46;90.84
56668;BME280;42542;48.360;10.958;2023-02-07T00:43:42;97864.63;;;-3.53;90.80
56668;BME280;42542;48.360;10.958;2023-02-07T00:46:44;97884.56;;;-3.49;90.41
56668;BME280;42542;48.360;10.958;2023-02-07T00:49:46;97887.19;;;-3.51;90.64
56668;BME280;42542;48.360;10.958;2023-02-07T00:52:47;97877.63;;;-3.52;90.23
56668;BME280;42542;48.360;10.958;2023-02-07T00:55:49;97884.69;;;-3.56;90.57
56668;BME280;42542;48.360;10.958;2023-02-07T00:58:51;97881.22;;;-3.56;90.63
56668;BME280;42542;48.360;10.958;2023-02-07T01:01:52;97889.06;;;-3.56;90.57
56668;BME280;42542;48.360;10.958;2023-02-07T01:04:54;97893.47;;;-3.58;90.70
56668;BME280;42542;48.360;10.958;2023-02-07T01:07:56;97902.19;;;-3.59;90.24
56668;BME280;42542;48.360;10.958;2023-02-07T01:11:05;97915.34;;;-3.62;90.46
56668;BME280;42542;48.360;10.958;2023-02-07T01:14:07;97909.28;;;-3.64;90.75
56668;BME280;42542;48.360;10.958;2023-02-07T01:17:09;97918.88;;;-3.65;90.40
56668;BME280;42542;48.360;10.958;2023-02-07T01:20:11;97925.00;;;-3.66;90.57
56668;BME280;42542;48.360;10.958;2023-02-07T01:23:13;97935.53;;;-3.69;89.78
56668;BME280;42542;48.360;10.958;2023-02-07T01:26:16;97932.94;;;-3.70;90.08
56668;BME280;42542;48.360;10.958;2023-02-07T01:29:17;97936.47;;;-3.73;89.86
56668;BME280;42542;48.360;10.958;2023-02-07T01:32:19;97935.75;;;-3.79;89.86
56668;BME280;42542;48.360;10.958;2023-02-07T01:35:21;97926.28;;;-3.85;89.53
56668;BME280;42542;48.360;10.958;2023-02-07T01:38:23;97937.56;;;-3.83;90.42
56668;BME280;42542;48.360;10.958;2023-02-07T01:41:25;97927.16;;;-3.84;90.16
56668;BME280;42542;48.360;10.958;2023-02-07T01:47:30;97913.28;;;-3.88;90.28
56668;BME280;42542;48.360;10.958;2023-02-07T01:50:32;97918.59;;;-3.91;89.92
56668;BME280;42542;48.360;10.958;2023-02-07T01:53:36;97922.97;;;-3.93;90.08
56668;BME280;42542;48.360;10.958;2023-02-07T01:56:43;97907.47;;;-4.01;90.16
56668;BME280;42542;48.360;10.958;2023-02-07T01:59:46;97919.47;;;-3.92;90.11
56668;BME280;42542;48.360;10.958;2023-02-07T02:02:47;97910.88;;;-3.97;89.98
56668;BME280;42542;48.360;10.958;2023-02-07T02:05:50;97913.50;;;-3.97;89.78
56668;BME280;42542;48.360;10.958;2023-02-07T02:08:57;97911.75;;;-3.97;89.53
56668;BME280;42542;48.360;10.958;2023-02-07T02:12:28;97917.06;;;-4.01;89.52
56668;BME280;42542;48.360;10.958;2023-02-07T02:15:49;97931.00;;;-4.02;89.32
56668;BME280;42542;48.360;10.958;2023-02-07T02:19:34;97926.72;;;-4.05;89.64
56668;BME280;42542;48.360;10.958;2023-02-07T02:26:53;97932.84;;;-4.07;89.71
56668;BME280;42542;48.360;10.958;2023-02-07T02:45:44;97966.22;;;-4.21;89.81
56668;BME280;42542;48.360;10.958;2023-02-07T02:48:47;97945.38;;;-4.24;89.87
56668;BME280;42542;48.360;10.958;2023-02-07T02:51:50;97954.13;;;-4.25;89.42
56668;BME280;42542;48.360;10.958;2023-02-07T02:54:53;97956.78;;;-4.30;89.04
56668;BME280;42542;48.360;10.958;2023-02-07T03:01:31;97973.41;;;-4.34;89.15
56668;BME280;42542;48.360;10.958;2023-02-07T03:04:55;97974.31;;;-4.37;89.63
56668;BME280;42542;48.360;10.958;2023-02-07T03:08:11;97971.75;;;-4.38;89.74
56668;BME280;42542;48.360;10.958;2023-02-07T03:11:16;97959.63;;;-4.41;89.15
56668;BME280;42542;48.360;10.958;2023-02-07T03:18:00;97966.72;;;-4.49;89.09
56668;BME280;42542;48.360;10.958;2023-02-07T03:24:26;97955.66;;;-4.61;89.07
56668;BME280;42542;48.360;10.958;2023-02-07T03:27:30;97970.25;;;-4.51;89.48
56668;BME280;42542;48.360;10.958;2023-02-07T03:30:34;97953.72;;;-4.52;89.41
56668;BME280;42542;48.360;10.958;2023-02-07T03:33:39;97957.22;;;-4.53;89.54
56668;BME280;42542;48.360;10.958;2023-02-07T03:36:50;97956.31;;;-4.50;89.04
56668;BME280;42542;48.360;10.958;2023-02-07T03:39:54;97951.97;;;-4.51;89.23
56668;BME280;42542;48.360;10.958;2023-02-07T03:43:03;97948.50;;;-4.50;89.01
56668;BME280;42542;48.360;10.958;2023-02-07T03:46:08;97947.69;;;-4.54;88.87
56668;BME280;42542;48.360;10.958;2023-02-07T03:49:09;97944.22;;;-4.54;88.79
56668;BME280;42542;48.360;10.958;2023-02-07T03:52:12;97955.53;;;-4.54;88.86
56668;BME280;42542;48.360;10.958;2023-02-07T03:55:13;97952.06;;;-4.56;88.94
56668;BME280;42542;48.360;10.958;2023-02-07T03:58:15;97937.31;;;-4.57;88.73
56668;BME280;42542;48.360;10.958;2023-02-07T04:01:17;97935.59;;;-4.58;88.73
56668;BME280;42542;48.360;10.958;2023-02-07T04:04:19;97938.19;;;-4.58;88.50
56668;BME280;42542;48.360;10.958;2023-02-07T04:07:20;97949.50;;;-4.59;88.52
56668;BME280;42542;48.360;10.958;2023-02-07T04:10:22;97946.06;;;-4.61;88.55
56668;BME280;42542;48.360;10.958;2023-02-07T04:13:24;97947.00;;;-4.63;88.57
56668;BME280;42542;48.360;10.958;2023-02-07T04:16:26;97951.34;;;-4.64;88.74
56668;BME280;42542;48.360;10.958;2023-02-07T04:19:27;97946.16;;;-4.65;88.71
56668;BME280;42542;48.360;10.958;2023-02-07T04:22:29;97951.34;;;-4.64;88.73
56668;BME280;42542;48.360;10.958;2023-02-07T04:25:31;97959.19;;;-4.64;88.65
56668;BME280;42542;48.360;10.958;2023-02-07T04:28:32;97960.94;;;-4.66;88.20
56668;BME280;42542;48.360;10.958;2023-02-07T04:31:34;97958.28;;;-4.63;88.52
56668;BME280;42542;48.360;10.958;2023-02-07T04:34:38;97953.13;;;-4.66;88.34
56668;BME280;42542;48.360;10.958;2023-02-07T04:37:39;97947.06;;;-4.68;87.95
56668;BME280;42542;48.360;10.958;2023-02-07T04:40:41;97942.84;;;-4.75;88.28
56668;BME280;42542;48.360;10.958;2023-02-07T04:43:42;97948.00;;;-4.72;88.38
56668;BME280;42542;48.360;10.958;2023-02-07T04:46:44;97930.72;;;-4.76;88.03
56668;BME280;42542;48.360;10.958;2023-02-07T04:49:46;97916.00;;;-4.80;87.95
56668;BME280;42542;48.360;10.958;2023-02-07T04:52:47;97899.69;;;-4.91;88.03
56668;BME280;42542;48.360;10.958;2023-02-07T04:55:49;97910.94;;;-4.89;88.00
56668;BME280;42542;48.360;10.958;2023-02-07T04:58:52;97904.06;;;-4.95;88.03
56668;BME280;42542;48.360;10.958;2023-02-07T05:01:54;97919.81;;;-4.99;87.91
56668;BME280;42542;48.360;10.958;2023-02-07T05:04:55;97928.59;;;-5.05;88.16
56668;BME280;42542;48.360;10.958;2023-02-07T05:07:57;97943.41;;;-5.08;88.36
56668;BME280;42542;48.360;10.958;2023-02-07T05:10:59;97946.13;;;-5.15;88.59
56668;BME280;42542;48.360;10.958;2023-02-07T05:14:01;97962.66;;;-5.16;88.71
56668;BME280;42542;48.360;10.958;2023-02-07T05:17:03;97956.59;;;-5.18;88.78
56668;BME280;42542;48.360;10.958;2023-02-07T05:20:05;97954.94;;;-5.23;89.02
56668;BME280;42542;48.360;10.958;2023-02-07T05:23:08;97961.06;;;-5.24;89.12
56668;BME280;42542;48.360;10.958;2023-02-07T05:26:11;97957.63;;;-5.26;88.81
56668;BME280;42542;48.360;10.958;2023-02-07T05:29:12;97961.13;;;-5.27;89.14
56668;BME280;42542;48.360;10.958;2023-02-07T05:32:14;97955.06;;;-5.29;88.70
56668;BME280;42542;48.360;10.958;2023-02-07T05:35:40;97952.47;;;-5.31;89.17
56668;BME280;42542;48.360;10.958;2023-02-07T05:38:44;97947.38;;;-5.38;88.79
56668;BME280;42542;48.360;10.958;2023-02-07T05:41:45;97958.63;;;-5.35;88.64
56668;BME280;42542;48.360;10.958;2023-02-07T05:44:48;97950.84;;;-5.38;88.56
56668;BME280;42542;48.360;10.958;2023-02-07T05:47:49;97959.59;;;-5.42;89.16
56668;BME280;42542;48.360;10.958;2023-02-07T05:50:51;97957.88;;;-5.44;88.86
56668;BME280;42542;48.360;10.958;2023-02-07T05:53:52;97963.97;;;-5.45;88.98
56668;BME280;42542;48.360;10.958;2023-02-07T05:56:55;97958.75;;;-5.45;88.99
56668;BME280;42542;48.360;10.958;2023-02-07T05:59:57;97963.13;;;-5.46;88.82
56668;BME280;42542;48.360;10.958;2023-02-07T06:03:01;97951.03;;;-5.50;88.80
56668;BME280;42542;48.360;10.958;2023-02-07T06:06:02;97941.50;;;-5.53;88.84
56668;BME280;42542;48.360;10.958;2023-02-07T06:09:05;97935.44;;;-5.53;88.98
56668;BME280;42542;48.360;10.958;2023-02-07T06:12:07;97935.50;;;-5.56;88.82
56668;BME280;42542;48.360;10.958;2023-02-07T06:15:09;97945.03;;;-5.55;89.20
56668;BME280;42542;48.360;10.958;2023-02-07T06:18:10;97948.53;;;-5.58;89.15
56668;BME280;42542;48.360;10.958;2023-02-07T06:21:13;97954.63;;;-5.59;89.26
56668;BME280;42542;48.360;10.958;2023-02-07T06:24:15;97961.47;;;-5.53;89.78
56668;BME280;42542;48.360;10.958;2023-02-07T06:27:17;97959.72;;;-5.51;89.32
56668;BME280;42542;48.360;10.958;2023-02-07T06:30:19;97957.97;;;-5.49;89.33
56668;BME280;42542;48.360;10.958;2023-02-07T06:33:21;97960.59;;;-5.51;88.78
56668;BME280;42542;48.360;10.958;2023-02-07T06:36:23;97957.16;;;-5.54;88.74
56668;BME280;42542;48.360;10.958;2023-02-07T06:39:24;97970.16;;;-5.51;88.77
56668;BME280;42542;48.360;10.958;2023-02-07T06:42:27;97968.38;;;-5.49;88.91
56668;BME280;42542;48.360;10.958;2023-02-07T06:45:28;97975.31;;;-5.48;89.30
56668;BME280;42542;48.360;10.958;2023-02-07T06:48:31;97977.88;;;-5.46;89.21
56668;BME280;42542;48.360;10.958;2023-02-07T06:51:33;97977.88;;;-5.45;89.23
56668;BME280;42542;48.360;10.958;2023-02-07T06:54:35;97982.19;;;-5.44;89.16
56668;BME280;42542;48.360;10.958;2023-02-07T06:57:37;97978.72;;;-5.43;89.20
56668;BME280;42542;48.360;10.958;2023-02-07T07:00:39;97979.56;;;-5.42;88.78
56668;BME280;42542;48.360;10.958;2023-02-07T07:03:41;97981.25;;;-5.40;88.37
56668;BME280;42542;48.360;10.958;2023-02-07T07:06:43;97974.28;;;-5.38;89.00
56668;BME280;42542;48.360;10.958;2023-02-07T07:09:45;97977.75;;;-5.36;88.84
56668;BME280;42542;48.360;10.958;2023-02-07T07:12:48;97971.63;;;-5.33;89.09
56668;BME280;42542;48.360;10.958;2023-02-07T07:15:49;97970.72;;;-5.32;88.45
56668;BME280;42542;48.360;10.958;2023-02-07T07:18:52;97969.88;;;-5.33;88.60
56668;BME280;42542;48.360;10.958;2023-02-07T07:21:54;97988.06;;;-5.30;88.50
56668;BME280;42542;48.360;10.958;2023-02-07T07:24:55;97988.94;;;-5.29;88.46
56668;BME280;42542;48.360;10.958;2023-02-07T07:27:57;97979.38;;;-5.29;88.40
56668;BME280;42542;48.360;10.958;2023-02-07T07:31:05;97992.38;;;-5.27;88.19
56668;BME280;42542;48.360;10.958;2023-02-07T07:34:08;97996.66;;;-5.25;88.71
56668;BME280;42542;48.360;10.958;2023-02-07T07:37:11;97989.66;;;-5.20;88.50
56668;BME280;42542;48.360;10.958;2023-02-07T07:40:13;97987.84;;;-5.15;88.48
56668;BME280;42542;48.360;10.958;2023-02-07T07:43:15;97989.50;;;-5.11;88.14
56668;BME280;42542;48.360;10.958;2023-02-07T07:46:19;97988.63;;;-5.11;88.24
56668;BME280;42542;48.360;10.958;2023-02-07T07:49:21;97975.47;;;-5.02;88.62
56668;BME280;42542;48.360;10.958;2023-02-07T07:52:23;97973.69;;;-4.98;88.17
56668;BME280;42542;48.360;10.958;2023-02-07T07:55:25;97965.81;;;-4.97;87.76
56668;BME280;42542;48.360;10.958;2023-02-07T07:58:27;97959.72;;;-4.96;87.69
56668;BME280;42542;48.360;10.958;2023-02-07T08:01:29;97964.03;;;-4.93;87.85
56668;BME280;42542;48.360;10.958;2023-02-07T08:04:31;97959.66;;;-4.91;87.74
56668;BME280;42542;48.360;10.958;2023-02-07T08:07:33;97965.69;;;-4.89;87.75
56668;BME280;42542;48.360;10.958;2023-02-07T08:10:38;97968.25;;;-4.85;88.17
56668;BME280;42542;48.360;10.958;2023-02-07T08:13:41;97951.78;;;-4.90;87.88
56668;BME280;42542;48.360;10.958;2023-02-07T08:16:43;97972.47;;;-4.78;88.44
56668;BME280;42542;48.360;10.958;2023-02-07T08:19:46;97977.47;;;-4.67;88.54
56668;BME280;42542;48.360;10.958;2023-02-07T08:22:47;97986.88;;;-4.55;88.34
56668;BME280;42542;48.360;10.958;2023-02-07T08:25:50;97986.84;;;-4.54;87.96
56668;BME280;42542;48.360;10.958;2023-02-07T08:28:51;97989.34;;;-4.48;87.73
56668;BME280;42542;48.360;10.958;2023-02-07T08:31:54;97990.09;;;-4.43;87.76
56668;BME280;42542;48.360;10.958;2023-02-07T08:34:56;97991.75;;;-4.39;87.57
56668;BME280;42542;48.360;10.958;2023-02-07T08:37:57;97998.66;;;-4.35;87.54
56668;BME280;42542;48.360;10.958;2023-02-07T08:40:59;98004.66;;;-4.29;87.33
56668;BME280;42542;48.360;10.958;2023-02-07T08:44:02;98012.38;;;-4.25;87.25
56668;BME280;42542;48.360;10.958;2023-02-07T08:47:04;98003.72;;;-4.25;87.71
56668;BME280;42542;48.360;10.958;2023-02-07T08:50:07;98002.56;;;-4.11;87.41
56668;BME280;42542;48.360;10.958;2023-02-07T08:53:09;98014.66;;;-4.07;87.19
56668;BME280;42542;48.360;10.958;2023-02-07T08:56:11;97991.03;;;-4.01;87.14
56668;BME280;42542;48.360;10.958;2023-02-07T08:59:12;97997.88;;;-3.95;86.72
56668;BME280;42542;48.360;10.958;2023-02-07T09:02:15;97988.22;;;-3.90;86.97
56668;BME280;42542;48.360;10.958;2023-02-07T09:05:17;97991.63;;;-3.86;86.92
56668;BME280;42542;48.360;10.958;2023-02-07T09:08:18;97989.81;;;-3.83;86.86
56668;BME280;42542;48.360;10.958;2023-02-07T09:11:20;97987.09;;;-3.78;87.05
56668;BME280;42542;48.360;10.958;2023-02-07T09:14:23;97978.47;;;-3.82;86.72
56668;BME280;42542;48.360;10.958;2023-02-07T09:17:25;97993.03;;;-3.70;87.08
56668;BME280;42542;48.360;10.958;2023-02-07T09:20:27;97992.00;;;-3.63;86.54
56668;BME280;42542;48.360;10.958;2023-02-07T09:23:32;97999.81;;;-3.62;86.56
56668;BME280;42542;48.360;10.958;2023-02-07T09:26:36;98007.56;;;-3.57;86.50
56668;BME280;42542;48.360;10.958;2023-02-07T09:29:39;98008.31;;;-3.52;86.52
56668;BME280;42542;48.360;10.958;2023-02-07T09:32:41;98006.53;;;-3.50;86.25
56668;BME280;42542;48.360;10.958;2023-02-07T09:35:44;98009.09;;;-3.47;86.20
56668;BME280;42542;48.360;10.958;2023-02-07T09:38:50;98005.44;;;-3.40;85.63
56668;BME280;42542;48.360;10.958;2023-02-07T09:45:16;98021.75;;;-3.29;85.98
56668;BME280;42542;48.360;10.958;2023-02-07T09:48:26;98012.09;;;-3.25;84.96
56668;BME280;42542;48.360;10.958;2023-02-07T09:51:33;98015.50;;;-3.23;85.46
56668;BME280;42542;48.360;10.958;2023-02-07T09:54:40;98021.53;;;-3.18;85.37
56668;BME280;42542;48.360;10.958;2023-02-07T09:58:07;98015.28;;;-3.12;85.60
56668;BME280;42542;48.360;10.958;2023-02-07T10:01:56;98012.56;;;-3.08;85.49
56668;BME280;42542;48.360;10.958;2023-02-07T10:04:40;98009.00;;;-3.04;85.18
56668;BME280;42542;48.360;10.958;2023-02-07T10:07:48;98004.53;;;-3.00;84.76
56668;BME280;42542;48.360;10.958;2023-02-07T10:11:06;98000.91;;;-2.95;84.97
56668;BME280;42542;48.360;10.958;2023-02-07T10:20:52;97994.41;;;-2.79;85.38
56668;BME280;42542;48.360;10.958;2023-02-07T10:27:29;97970.81;;;-2.76;85.09
56668;BME280;42542;48.360;10.958;2023-02-07T10:30:35;97984.41;;;-2.61;84.71
56668;BME280;42542;48.360;10.958;2023-02-07T10:33:46;97985.13;;;-2.56;84.76
56668;BME280;42542;48.360;10.958;2023-02-07T10:36:51;97977.28;;;-2.56;84.54
56668;BME280;42542;48.360;10.958;2023-02-07T10:40:01;97983.94;;;-2.45;84.80
56668;BME280;42542;48.360;10.958;2023-02-07T10:43:24;97980.28;;;-2.38;84.80
56668;BME280;42542;48.360;10.958;2023-02-07T10:46:28;97993.16;;;-2.30;84.36
56668;BME280;42542;48.360;10.958;2023-02-07T10:49:33;97991.34;;;-2.26;84.30
56668;BME280;42542;48.360;10.958;2023-02-07T10:52:38;97979.84;;;-2.21;83.80
56668;BME280;42542;48.360;10.958;2023-02-07T10:55:42;97989.22;;;-2.12;84.09
56668;BME280;42542;48.360;10.958;2023-02-07T10:58:48;97995.19;;;-2.07;83.49
56668;BME280;42542;48.360;10.958;2023-02-07T11:01:52;97988.19;;;-2.07;82.50
56668;BME280;42542;48.360;10.958;2023-02-07T11:08:14;97997.31;;;-1.89;81.88
56668;BME280;42542;48.360;10.958;2023-02-07T11:11:28;97997.97;;;-1.81;81.66
56668;BME280;42542;48.360;10.958;2023-02-07T11:14:32;97994.28;;;-1.75;81.58
56668;BME280;42542;48.360;10.958;2023-02-07T11:17:37;97988.94;;;-1.72;80.88
56668;BME280;42542;48.360;10.958;2023-02-07T11:20:39;97991.47;;;-1.68;80.45
56668;BME280;42542;48.360;10.958;2023-02-07T11:23:43;97988.66;;;-1.62;79.54
56668;BME280;42542;48.360;10.958;2023-02-07T11:30:17;97984.06;;;-1.53;78.42
56668;BME280;42542;48.360;10.958;2023-02-07T11:33:20;97979.56;;;-1.50;77.84
56668;BME280;42542;48.360;10.958;2023-02-07T11:36:30;97976.81;;;-1.45;77.49
56668;BME280;42542;48.360;10.958;2023-02-07T11:39:33;97974.03;;;-1.41;77.43
56668;BME280;42542;48.360;10.958;2023-02-07T11:42:35;97974.75;;;-1.36;76.98
56668;BME280;42542;48.360;10.958;2023-02-07T11:45:39;97978.06;;;-1.29;77.16
56668;BME280;42542;48.360;10.958;2023-02-07T11:48:47;97965.63;;;-1.23;77.15
56668;BME280;42542;48.360;10.958;2023-02-07T11:51:57;97964.56;;;-1.17;76.65
56668;BME280;42542;48.360;10.958;2023-02-07T11:55:05;97961.78;;;-1.12;75.63
56668;BME280;42542;48.360;10.958;2023-02-07T11:58:12;97961.63;;;-1.08;76.33
56668;BME280;42542;48.360;10.958;2023-02-07T12:01:24;97965.94;;;-1.05;74.40
56668;BME280;42542;48.360;10.958;2023-02-07T12:04:31;97961.50;;;-1.03;73.38
56668;BME280;42542;48.360;10.958;2023-02-07T12:07:42;97949.97;;;-0.98;73.84
56668;BME280;42542;48.360;10.958;2023-02-07T12:10:48;97953.19;;;-0.90;73.10
56668;BME280;42542;48.360;10.958;2023-02-07T12:13:55;97945.97;;;-0.83;73.18
56668;BME280;42542;48.360;10.958;2023-02-07T12:17:02;97942.31;;;-0.79;73.06
56668;BME280;42542;48.360;10.958;2023-02-07T12:20:13;97943.06;;;-0.74;72.93
56668;BME280;42542;48.360;10.958;2023-02-07T12:23:26;97951.38;;;-0.61;73.57
56668;BME280;42542;48.360;10.958;2023-02-07T12:30:35;97940.44;;;-0.49;70.68
56668;BME280;42542;48.360;10.958;2023-02-07T12:33:55;97930.72;;;-0.46;71.29
56668;BME280;42542;48.360;10.958;2023-02-07T12:44:07;97926.72;;;-0.32;69.06
56668;BME280;42542;48.360;10.958;2023-02-07T12:57:34;97910.53;;;-0.20;67.42
56668;BME280;42542;48.360;10.958;2023-02-07T13:00:59;97905.28;;;-0.20;65.61
56668;BME280;42542;48.360;10.958;2023-02-07T13:04:33;97909.47;;;-0.15;65.70
56668;BME280;42542;48.360;10.958;2023-02-07T13:10:52;97917.28;;;-0.13;64.07
56668;BME280;42542;48.360;10.958;2023-02-07T13:17:52;97916.13;;;-0.06;63.91
56668;BME280;42542;48.360;10.958;2023-02-07T13:24:26;97919.47;;;-0.01;65.26
56668;BME280;42542;48.360;10.958;2023-02-07T13:27:30;97904.78;;;-0.07;63.99
56668;BME280;42542;48.360;10.958;2023-02-07T13:30:33;97908.22;;;-0.05;63.28
56668;BME280;42542;48.360;10.958;2023-02-07T13:33:37;97915.94;;;0.00;63.67
56668;BME280;42542;48.360;10.958;2023-02-07T13:36:41;97918.22;;;0.09;63.25
56668;BME280;42542;48.360;10.958;2023-02-07T13:56:59;97934.53;;;0.19;60.91
56668;BME280;42542;48.360;10.958;2023-02-07T14:00:22;97933.66;;;0.18;59.60
56668;BME280;42542;48.360;10.958;2023-02-07T14:03:31;97929.34;;;0.16;59.05
56668;BME280;42542;48.360;10.958;2023-02-07T14:06:36;97933.47;;;0.23;58.28
56668;BME280;42542;48.360;10.958;2023-02-07T14:09:44;97947.50;;;0.23;59.03
56668;BME280;42542;48.360;10.958;2023-02-07T14:12:48;97945.75;;;0.22;58.24
56668;BME280;42542;48.360;10.958;2023-02-07T14:16:11;97939.66;;;0.22;59.21
56668;BME280;42542;48.360;10.958;2023-02-07T14:19:13;97948.06;;;0.31;60.02
56668;BME280;42542;48.360;10.958;2023-02-07T14:25:37;97954.00;;;0.36;60.53
56668;BME280;42542;48.360;10.958;2023-02-07T14:28:40;97959.22;;;0.38;60.58
56668;BME280;42542;48.360;10.958;2023-02-07T14:31:53;97957.44;;;0.38;59.83
56668;BME280;42542;48.360;10.958;2023-02-07T14:41:12;97949.31;;;0.45;60.47
56668;BME280;42542;48.360;10.958;2023-02-07T14:44:35;97946.63;;;0.46;60.33
56668;BME280;42542;48.360;10.958;2023-02-07T14:47:38;97942.34;;;0.44;58.73
56668;BME280;42542;48.360;10.958;2023-02-07T14:50:50;97955.34;;;0.48;59.92
56668;BME280;42542;48.360;10.958;2023-02-07T14:53:58;97944.88;;;0.47;61.49
56668;BME280;42542;48.360;10.958;2023-02-07T15:00:32;97944.88;;;0.47;63.48
56668;BME280;42542;48.360;10.958;2023-02-07T15:03:36;97951.03;;;0.46;64.36
56668;BME280;42542;48.360;10.958;2023-02-07T15:06:42;97952.06;;;0.42;64.50
56668;BME280;42542;48.360;10.958;2023-02-07T15:09:44;97949.44;;;0.42;64.51
56668;BME280;42542;48.360;10.958;2023-02-07T15:12:49;97953.94;;;0.38;65.58
56668;BME280;42542;48.360;10.958;2023-02-07T15:15:57;97958.25;;;0.41;65.77
56668;BME280;42542;48.360;10.958;2023-02-07T15:19:05;97947.97;;;0.34;66.09
56668;BME280;42542;48.360;10.958;2023-02-07T15:22:23;97955.03;;;0.32;65.91
56668;BME280;42542;48.360;10.958;2023-02-07T15:25:26;97960.34;;;0.31;66.13
56668;BME280;42542;48.360;10.958;2023-02-07T15:28:29;97963.91;;;0.30;66.29
56668;BME280;42542;48.360;10.958;2023-02-07T15:31:37;97960.53;;;0.26;66.10
56668;BME280;42542;48.360;10.958;2023-02-07T15:34:43;97965.91;;;0.23;67.00
56668;BME280;42542;48.360;10.958;2023-02-07T15:37:46;97958.88;;;0.24;67.71
56668;BME280;42542;48.360;10.958;2023-02-07T15:40:50;97956.38;;;0.21;68.53
56668;BME280;42542;48.360;10.958;2023-02-07T15:47:04;97953.44;;;0.05;68.17
56668;BME280;42542;48.360;10.958;2023-02-07T15:50:22;97972.56;;;0.09;68.77
56668;BME280;42542;48.360;10.958;2023-02-07T15:53:26;97972.69;;;0.06;68.63
56668;BME280;42542;48.360;10.958;2023-02-07T15:56:29;97974.50;;;0.04;69.09
56668;BME280;42542;48.360;10.958;2023-02-07T15:59:31;97979.94;;;-0.01;69.27
56668;BME280;42542;48.360;10.958;2023-02-07T16:02:36;97969.56;;;-0.06;70.72
56668;BME280;42542;48.360;10.958;2023-02-07T16:05:39;97971.34;;;-0.06;71.39
56668;BME280;42542;48.360;10.958;2023-02-07T16:08:43;97982.88;;;-0.10;71.90
56668;BME280;42542;48.360;10.958;2023-02-07T16:11:45;97982.25;;;-0.17;71.27
56668;BME280;42542;48.360;10.958;2023-02-07T16:14:47;97991.03;;;-0.18;72.05
56668;BME280;42542;48.360;10.958;2023-02-07T16:17:52;97992.13;;;-0.23;72.07
56668;BME280;42542;48.360;10.958;2023-02-07T16:20:54;97995.75;;;-0.27;71.67
56668;BME280;42542;48.360;10.958;2023-02-07T16:24:05;97988.88;;;-0.31;72.10
56668;BME280;42542;48.360;10.958;2023-02-07T16:27:17;97990.88;;;-0.38;72.00
56668;BME280;42542;48.360;10.958;2023-02-07T16:30:34;98001.47;;;-0.41;71.40
56668;BME280;42542;48.360;10.958;2023-02-07T16:33:37;97978.41;;;-0.58;71.04
56668;BME280;42542;48.360;10.958;2023-02-07T16:36:41;97988.91;;;-0.58;71.16
56668;BME280;42542;48.360;10.958;2023-02-07T16:39:43;97999.47;;;-0.59;71.81
56668;BME280;42542;48.360;10.958;2023-02-07T16:42:45;98000.41;;;-0.62;72.02
56668;BME280;42542;48.360;10.958;2023-02-07T16:45:47;98002.22;;;-0.64;72.23
56668;BME280;42542;48.360;10.958;2023-02-07T16:48:49;97999.78;;;-0.70;71.79
56668;BME280;42542;48.360;10.958;2023-02-07T16:51:51;98008.56;;;-0.71;71.89
56668;BME280;42542;48.360;10.958;2023-02-07T16:54:54;98017.28;;;-0.69;72.42
56668;BME280;42542;48.360;10.958;2023-02-07T16:57:56;98018.41;;;-0.77;72.73
56668;BME280;42542;48.360;10.958;2023-02-07T17:00:57;98024.66;;;-0.80;73.01
56668;BME280;42542;48.360;10.958;2023-02-07T17:04:00;98022.34;;;-0.91;73.21
56668;BME280;42542;48.360;10.958;2023-02-07T17:07:01;98042.28;;;-0.85;73.74
56668;BME280;42542;48.360;10.958;2023-02-07T17:10:26;98030.22;;;-0.91;73.89
56668;BME280;42542;48.360;10.958;2023-02-07T17:13:29;98025.13;;;-0.95;73.94
56668;BME280;42542;48.360;10.958;2023-02-07T17:16:31;98014.75;;;-1.00;74.22
56668;BME280;42542;48.360;10.958;2023-02-07T17:19:34;98007.19;;;-1.09;74.32
56668;BME280;42542;48.360;10.958;2023-02-07T17:22:38;98007.25;;;-1.12;74.63
56668;BME280;42542;48.360;10.958;2023-02-07T17:25:43;98015.06;;;-1.09;74.76
56668;BME280;42542;48.360;10.958;2023-02-07T17:28:45;98016.84;;;-1.11;75.35
56668;BME280;42542;48.360;10.958;2023-02-07T17:31:47;98013.56;;;-1.17;75.31
56668;BME280;42542;48.360;10.958;2023-02-07T17:34:49;98023.25;;;-1.20;75.72
56668;BME280;42542;48.360;10.958;2023-02-07T17:37:51;98020.81;;;-1.26;76.40
56668;BME280;42542;48.360;10.958;2023-02-07T17:40:53;98025.34;;;-1.31;76.38
56668;BME280;42542;48.360;10.958;2023-02-07T17:43:56;98027.22;;;-1.36;76.73
56668;BME280;42542;48.360;10.958;2023-02-07T17:46:58;98022.19;;;-1.43;76.67
56668;BME280;42542;48.360;10.958;2023-02-07T17:50:01;98024.06;;;-1.47;77.10
56668;BME280;42542;48.360;10.958;2023-02-07T17:53:04;98016.41;;;-1.54;77.39
56668;BME280;42542;48.360;10.958;2023-02-07T17:56:09;98015.78;;;-1.63;77.38
56668;BME280;42542;48.360;10.958;2023-02-07T17:59:20;98015.84;;;-1.66;77.31
56668;BME280;42542;48.360;10.958;2023-02-07T18:02:23;98025.63;;;-1.71;77.83
56668;BME280;42542;48.360;10.958;2023-02-07T18:05:25;98020.59;;;-1.78;77.75